createdAt,value
2023-05-09T00:01:36.827Z,101662.99
2023-05-09T00:04:40.983Z,101660.95
2023-05-09T00:07:45.008Z,101660.03
2023-05-09T00:10:48.959Z,101655.97
2023-05-09T00:13:53.418Z,101653.83
2023-05-09T00:16:59.385Z,101649.34
2023-05-09T00:20:05.353Z,101647.73
2023-05-09T00:23:09.369Z,101648.09
2023-05-09T00:26:13.316Z,101649.73
2023-05-09T00:29:19.450Z,101648.98
2023-05-09T00:32:23.395Z,101651.39
2023-05-09T00:35:27.378Z,101643.66
2023-05-09T00:38:31.597Z,101641.58
2023-05-09T00:41:35.716Z,101648.55
2023-05-09T00:44:39.799Z,101645.59
2023-05-09T00:47:43.876Z,101645.52
2023-05-09T00:50:52.914Z,101645.41
2023-05-09T00:53:57.124Z,101643.21
2023-05-09T00:57:01.220Z,101642.15
2023-05-09T01:00:06.698Z,101639.03
2023-05-09T01:03:11.295Z,101638.10
2023-05-09T01:06:39.722Z,101635.45
2023-05-09T01:09:47.082Z,101635.94
2023-05-09T01:13:01.802Z,101636.89
2023-05-09T01:16:21.156Z,101639.20
2023-05-09T01:19:34.333Z,101640.98
2023-05-09T01:22:47.010Z,101636.48
2023-05-09T01:26:13.011Z,101636.10
2023-05-09T01:29:47.335Z,101636.35
2023-05-09T01:32:54.025Z,101637.52
2023-05-09T01:36:02.076Z,101632.77
2023-05-09T01:39:09.821Z,101636.64
2023-05-09T01:42:17.421Z,101637.88
2023-05-09T01:45:23.702Z,101638.16
2023-05-09T01:48:31.043Z,101636.72
2023-05-09T01:51:37.763Z,101637.34
2023-05-09T01:54:44.763Z,101638.31
2023-05-09T01:57:51.197Z,101637.72
2023-05-09T02:00:55.829Z,101637.77
2023-05-09T02:04:00.540Z,101638.60
2023-05-09T02:07:06.269Z,101637.92
2023-05-09T02:10:11.087Z,101631.90
2023-05-09T02:13:15.745Z,101632.87
2023-05-09T02:16:20.947Z,101630.04
2023-05-09T02:19:24.971Z,101635.92
2023-05-09T02:22:29.003Z,101627.48
2023-05-09T02:25:34.410Z,101636.05
2023-05-09T02:28:39.679Z,101629.89
2023-05-09T02:31:45.575Z,101637.46
2023-05-09T02:34:52.460Z,101633.45
2023-05-09T02:37:58.997Z,101630.05
2023-05-09T02:41:03.212Z,101632.53
2023-05-09T02:44:07.615Z,101623.60
2023-05-09T02:47:11.592Z,101624.89
2023-05-09T02:50:15.790Z,101628.23
2023-05-09T02:53:20.443Z,101626.35
2023-05-09T02:56:24.440Z,101627.08
2023-05-09T02:59:28.741Z,101623.21
2023-05-09T03:02:33.436Z,101625.61
2023-05-09T03:05:37.713Z,101626.32
2023-05-09T03:08:41.879Z,101625.83
2023-05-09T03:11:46.405Z,101626.91
2023-05-09T03:14:50.476Z,101627.91
2023-05-09T03:17:54.525Z,101630.58
2023-05-09T03:20:58.864Z,101635.39
2023-05-09T03:24:04.864Z,101638.10
2023-05-09T03:27:08.889Z,101640.17
2023-05-09T03:30:13.671Z,101638.67
2023-05-09T03:33:18.035Z,101639.90
2023-05-09T03:36:23.285Z,101648.61
2023-05-09T03:39:28.015Z,101646.58
2023-05-09T03:42:33.770Z,101650.25
2023-05-09T03:45:38.813Z,101649.32
2023-05-09T03:48:44.037Z,101652.30
2023-05-09T03:51:48.369Z,101652.88
2023-05-09T03:54:53.138Z,101656.45
2023-05-09T03:57:57.740Z,101656.28
2023-05-09T04:01:02.677Z,101659.81
2023-05-09T04:04:07.313Z,101654.65
2023-05-09T04:07:12.128Z,101656.86
2023-05-09T04:10:16.279Z,101653.96
2023-05-09T04:13:20.742Z,101650.07
2023-05-09T04:16:25.161Z,101651.93
2023-05-09T04:19:29.336Z,101651.08
2023-05-09T04:22:33.618Z,101648.04
2023-05-09T04:25:37.776Z,101647.10
2023-05-09T04:28:42.185Z,101650.21
2023-05-09T04:31:47.145Z,101647.48
2023-05-09T04:34:51.447Z,101648.60
2023-05-09T04:37:58.140Z,101649.62
2023-05-09T04:41:02.291Z,101650.48
2023-05-09T04:44:06.762Z,101651.96
2023-05-09T04:47:11.318Z,101651.54
2023-05-09T04:50:16.673Z,101651.50
2023-05-09T04:53:20.621Z,101643.48
2023-05-09T04:56:24.991Z,101643.80
2023-05-09T04:59:29.119Z,101636.80
2023-05-09T05:02:33.183Z,101641.17
2023-05-09T05:05:37.934Z,101646.77
2023-05-09T05:08:43.240Z,101644.54
2023-05-09T05:11:58.373Z,101638.23
2023-05-09T05:15:05.051Z,101637.66
2023-05-09T05:18:09.553Z,101638.68
2023-05-09T05:21:13.814Z,101636.02
2023-05-09T05:24:18.491Z,101637.22
2023-05-09T05:27:23.387Z,101637.05
2023-05-09T05:30:28.320Z,101639.50
2023-05-09T05:33:32.359Z,101639.41
2023-05-09T05:36:36.970Z,101634.34
2023-05-09T05:39:41.585Z,101634.11
2023-05-09T05:42:46.743Z,101628.08
2023-05-09T05:45:51.201Z,101629.95
2023-05-09T05:48:56.808Z,101624.85
2023-05-09T05:52:00.996Z,101625.66
2023-05-09T05:55:06.485Z,101621.45
2023-05-09T05:58:10.506Z,101620.69
2023-05-09T06:01:14.623Z,101617.83
2023-05-09T06:04:18.927Z,101620.30
2023-05-09T06:07:23.052Z,101619.71
2023-05-09T06:10:27.088Z,101619.30
2023-05-09T06:13:31.055Z,101612.14
2023-05-09T06:16:39.336Z,101613.23
2023-05-09T06:19:43.434Z,101611.05
2023-05-09T06:22:47.455Z,101611.27
2023-05-09T06:25:51.563Z,101615.97
2023-05-09T06:28:56.190Z,101614.42
2023-05-09T06:32:00.464Z,101616.02
2023-05-09T06:35:05.525Z,101616.27
2023-05-09T06:38:09.464Z,101611.52
2023-05-09T06:41:13.399Z,101614.08
2023-05-09T06:44:17.495Z,101616.68
2023-05-09T06:47:21.711Z,101618.94
2023-05-09T06:50:25.836Z,101621.10
2023-05-09T06:53:29.854Z,101616.96
2023-05-09T06:56:33.976Z,101619.75
2023-05-09T06:59:38.100Z,101611.84
2023-05-09T07:02:42.554Z,101613.73
2023-05-09T07:05:47.237Z,101607.38
2023-05-09T07:08:51.457Z,101601.56
2023-05-09T07:11:55.897Z,101607.06
2023-05-09T07:15:00.226Z,101601.88
2023-05-09T07:18:04.431Z,101597.11
2023-05-09T07:21:08.553Z,101591.92
2023-05-09T07:24:12.571Z,101591.90
2023-05-09T07:27:16.779Z,101592.59
2023-05-09T07:30:20.877Z,101587.89
2023-05-09T07:33:24.925Z,101590.33
2023-05-09T07:36:28.941Z,101579.02
2023-05-09T07:39:32.954Z,101573.64
2023-05-09T07:42:37.185Z,101577.16
2023-05-09T07:45:41.624Z,101568.90
2023-05-09T07:48:46.088Z,101569.77
2023-05-09T07:51:50.249Z,101567.11
2023-05-09T07:54:54.787Z,101562.97
2023-05-09T07:57:58.890Z,101560.80
2023-05-09T08:01:02.904Z,101559.48
2023-05-09T08:04:09.204Z,101556.10
2023-05-09T08:07:13.379Z,101548.58
2023-05-09T08:10:17.513Z,101551.94
2023-05-09T08:13:22.542Z,101546.79
2023-05-09T08:16:26.790Z,101543.04
2023-05-09T08:19:30.999Z,101542.25
2023-05-09T08:22:35.733Z,101536.73
2023-05-09T08:25:39.746Z,101531.16
2023-05-09T08:28:43.986Z,101532.98
2023-05-09T08:31:49.059Z,101531.29
2023-05-09T08:34:53.542Z,101522.78
2023-05-09T08:37:57.604Z,101520.34
2023-05-09T08:41:02.243Z,101515.29
2023-05-09T08:44:07.297Z,101514.52
2023-05-09T08:47:12.057Z,101513.67
2023-05-09T08:50:17.760Z,101508.45
2023-05-09T08:53:22.943Z,101510.73
2023-05-09T08:56:27.282Z,101505.11
2023-05-09T08:59:35.299Z,101503.99
2023-05-09T09:02:42.429Z,101499.38
2023-05-09T09:05:48.714Z,101495.50
2023-05-09T09:08:56.091Z,101492.64
2023-05-09T09:12:00.781Z,101500.15
2023-05-09T09:15:06.824Z,101493.08
2023-05-09T09:18:22.834Z,101494.49
2023-05-09T09:21:27.484Z,101494.23
2023-05-09T09:24:32.400Z,101490.75
2023-05-09T09:27:36.949Z,101491.46
2023-05-09T09:30:45.388Z,101492.92
2023-05-09T09:33:50.045Z,101488.02
2023-05-09T09:36:54.078Z,101483.84
2023-05-09T09:39:58.298Z,101473.05
2023-05-09T09:43:02.344Z,101471.71
2023-05-09T09:46:06.391Z,101474.39
2023-05-09T09:49:11.700Z,101470.66
2023-05-09T09:52:25.221Z,101470.63
2023-05-09T09:55:29.417Z,101467.20
2023-05-09T09:58:33.759Z,101469.45
2023-05-09T10:02:12.416Z,101472.63
2023-05-09T10:05:34.963Z,101463.99
2023-05-09T10:08:40.359Z,101464.95
2023-05-09T10:11:47.903Z,101455.35
2023-05-09T10:14:52.915Z,101456.42
2023-05-09T10:17:58.279Z,101446.30
2023-05-09T10:21:05.644Z,101446.20
2023-05-09T10:24:10.914Z,101436.86
2023-05-09T10:27:18.117Z,101431.80
2023-05-09T10:30:34.231Z,101433.40
2023-05-09T10:33:44.381Z,101429.11
2023-05-09T10:36:49.276Z,101431.08
2023-05-09T10:39:55.596Z,101435.92
2023-05-09T10:42:59.611Z,101433.77
2023-05-09T10:46:07.137Z,101429.89
2023-05-09T10:49:11.394Z,101415.23
2023-05-09T10:52:15.633Z,101411.08
2023-05-09T10:55:19.854Z,101416.33
2023-05-09T10:58:29.364Z,101409.96
2023-05-09T11:01:39.242Z,101404.71
2023-05-09T11:04:44.781Z,101401.67
2023-05-09T11:08:28.584Z,101400.23
2023-05-09T11:11:32.769Z,101394.80
2023-05-09T11:14:39.664Z,101396.90
2023-05-09T11:17:43.934Z,101389.88
2023-05-09T11:20:49.461Z,101385.58
2023-05-09T11:23:55.262Z,101380.40
2023-05-09T11:27:00.157Z,101376.31
2023-05-09T11:30:07.417Z,101368.27
2023-05-09T11:33:47.911Z,101365.64
2023-05-09T11:37:09.815Z,101366.83
2023-05-09T11:40:15.839Z,101359.41
2023-05-09T11:43:20.212Z,101349.67
2023-05-09T11:46:24.224Z,101347.27
2023-05-09T11:49:28.353Z,101330.16
2023-05-09T11:52:35.690Z,101325.16
2023-05-09T11:55:41.416Z,101326.70
2023-05-09T11:58:46.857Z,101324.05
2023-05-09T12:13:27.051Z,101317.94
2023-05-09T12:16:31.496Z,101315.83
2023-05-09T12:19:35.964Z,101312.73
2023-05-09T12:22:44.050Z,101300.73
2023-05-09T12:25:56.098Z,101294.27
2023-05-09T12:29:00.608Z,101289.17
2023-05-09T12:32:05.895Z,101275.45
2023-05-09T12:35:11.365Z,101283.21
2023-05-09T12:38:21.631Z,101282.83
2023-05-09T12:44:32.871Z,101268.97
2023-05-09T12:47:39.234Z,101266.54
2023-05-09T12:50:47.588Z,101268.38
2023-05-09T12:53:52.579Z,101267.41
2023-05-09T12:56:58.586Z,101262.22
2023-05-09T13:00:06.417Z,101252.77
2023-05-09T13:03:25.571Z,101244.22
2023-05-09T13:06:29.964Z,101239.38
2023-05-09T13:09:34.290Z,101240.27
2023-05-09T13:12:39.412Z,101235.46
2023-05-09T13:15:44.245Z,101236.17
2023-05-09T13:18:48.652Z,101230.02
2023-05-09T13:21:55.189Z,101220.53
2023-05-09T13:24:59.290Z,101219.29
2023-05-09T13:28:04.808Z,101220.86
2023-05-09T13:31:10.490Z,101214.33
2023-05-09T13:34:14.564Z,101212.93
2023-05-09T13:37:18.628Z,101209.80
2023-05-09T13:40:22.915Z,101207.84
2023-05-09T13:43:27.615Z,101197.08
2023-05-09T13:46:31.960Z,101193.41
2023-05-09T13:49:36.808Z,101187.23
2023-05-09T13:52:40.859Z,101192.91
2023-05-09T13:55:45.801Z,101186.69
2023-05-09T13:58:49.908Z,101180.74
2023-05-09T14:01:53.965Z,101172.46
2023-05-09T14:04:59.072Z,101177.52
2023-05-09T14:08:03.389Z,101174.77
2023-05-09T14:11:08.931Z,101173.20
2023-05-09T14:14:12.960Z,101167.89
2023-05-09T14:17:17.077Z,101164.06
2023-05-09T14:20:21.286Z,101159.00
2023-05-09T14:23:25.197Z,101155.03
2023-05-09T14:26:29.330Z,101149.27
2023-05-09T14:29:33.444Z,101146.02
2023-05-09T14:32:37.461Z,101145.31
2023-05-09T14:35:41.953Z,101139.38
2023-05-09T14:38:46.955Z,101145.30
2023-05-09T14:41:52.269Z,101142.59
2023-05-09T14:44:56.218Z,101143.43
2023-05-09T14:48:00.593Z,101140.91
2023-05-09T14:51:05.043Z,101142.09
2023-05-09T14:54:09.048Z,101138.11
2023-05-09T14:57:13.480Z,101134.89
2023-05-09T15:00:22.025Z,101128.12
2023-05-09T15:03:26.480Z,101130.75
2023-05-09T15:06:30.620Z,101121.73
2023-05-09T15:09:34.666Z,101125.19
2023-05-09T15:12:38.802Z,101122.22
2023-05-09T15:15:42.818Z,101117.77
2023-05-09T15:18:46.815Z,101109.09
2023-05-09T15:21:51.752Z,101106.68
2023-05-09T15:24:55.712Z,101107.51
2023-05-09T15:28:00.623Z,101099.08
2023-05-09T15:31:04.841Z,101095.30
2023-05-09T15:34:08.939Z,101102.09
2023-05-09T15:37:13.276Z,101100.08
2023-05-09T15:40:17.520Z,101094.52
2023-05-09T15:43:21.700Z,101092.55
2023-05-09T15:46:25.848Z,101095.61
2023-05-09T15:49:30.142Z,101091.42
2023-05-09T15:52:34.372Z,101090.73
2023-05-09T15:55:38.482Z,101092.62
2023-05-09T15:58:42.507Z,101087.98
2023-05-09T16:01:46.688Z,101087.27
2023-05-09T16:04:50.778Z,101079.26
2023-05-09T16:07:54.881Z,101074.78
2023-05-09T16:11:01.030Z,101068.71
2023-05-09T16:14:08.364Z,101061.43
2023-05-09T16:17:12.652Z,101058.84
2023-05-09T16:20:17.095Z,101056.06
2023-05-09T16:23:21.796Z,101056.02
2023-05-09T16:26:26.232Z,101053.77
2023-05-09T16:29:30.137Z,101051.73
2023-05-09T16:32:34.121Z,101049.88
2023-05-09T16:35:38.170Z,101045.88
2023-05-09T16:38:42.101Z,101045.42
2023-05-09T16:41:46.409Z,101041.84
2023-05-09T16:44:50.438Z,101041.90
2023-05-09T16:47:55.858Z,101040.05
2023-05-09T16:51:00.188Z,101036.42
2023-05-09T16:54:04.206Z,101029.98
2023-05-09T16:57:08.533Z,101027.69
2023-05-09T17:00:13.752Z,101026.68
2023-05-09T17:03:18.198Z,101025.77
2023-05-09T17:06:22.318Z,101031.40
2023-05-09T17:09:26.669Z,101028.63
2023-05-09T17:12:30.858Z,101028.16
2023-05-09T17:15:34.985Z,101018.46
2023-05-09T17:18:39.169Z,101014.14
2023-05-09T17:21:43.425Z,101013.97
2023-05-09T17:24:47.638Z,101014.75
2023-05-09T17:27:51.574Z,101013.58
2023-05-09T17:30:55.684Z,101014.95
2023-05-09T17:33:59.788Z,101016.55
2023-05-09T17:37:05.854Z,101019.44
2023-05-09T17:40:10.510Z,101020.28
2023-05-09T17:43:14.505Z,101023.10
2023-05-09T17:46:18.554Z,101020.79
2023-05-09T17:49:22.636Z,101020.10
2023-05-09T17:52:26.988Z,101021.44
2023-05-09T17:55:31.098Z,101027.85
2023-05-09T17:58:35.063Z,101026.70
2023-05-09T18:01:39.131Z,101029.34
2023-05-09T18:04:45.388Z,101026.63
2023-05-09T18:07:49.697Z,101026.52
2023-05-09T18:10:57.092Z,101027.35
2023-05-09T18:14:01.100Z,101026.30
2023-05-09T18:17:05.230Z,101029.42
2023-05-09T18:20:10.261Z,101032.25
2023-05-09T18:23:15.621Z,101030.02
2023-05-09T18:26:19.741Z,101035.08
2023-05-09T18:29:23.867Z,101035.06
2023-05-09T18:32:30.061Z,101032.91
2023-05-09T18:35:34.154Z,101030.38
2023-05-09T18:38:39.073Z,101031.14
2023-05-09T18:41:43.192Z,101034.39
2023-05-09T18:44:47.212Z,101043.05
2023-05-09T18:47:51.268Z,101046.98
2023-05-09T18:50:55.665Z,101050.16
2023-05-09T18:53:59.666Z,101046.52
2023-05-09T18:57:03.795Z,101045.16
2023-05-09T19:00:08.595Z,101044.23
2023-05-09T19:03:12.733Z,101041.27
2023-05-09T19:06:16.750Z,101043.60
2023-05-09T19:09:20.765Z,101038.45
2023-05-09T19:12:24.812Z,101035.98
2023-05-09T19:15:30.058Z,101037.95
2023-05-09T19:18:34.687Z,101038.13
2023-05-09T19:25:00.815Z,101035.20
2023-05-09T19:28:05.048Z,101031.40
2023-05-09T19:31:10.014Z,101032.73
2023-05-09T19:34:14.401Z,101034.34
2023-05-09T19:37:18.406Z,101032.83
2023-05-09T19:40:22.627Z,101032.19
2023-05-09T19:43:26.620Z,101028.29
2023-05-09T19:46:31.017Z,101025.41
2023-05-09T19:49:35.190Z,101026.80
2023-05-09T19:52:40.131Z,101025.96
2023-05-09T19:55:47.022Z,101025.55
2023-05-09T19:58:51.027Z,101023.60
2023-05-09T20:01:55.194Z,101024.98
2023-05-09T20:04:59.680Z,101021.82
2023-05-09T20:08:04.098Z,101025.64
2023-05-09T20:11:08.121Z,101023.36
2023-05-09T20:14:12.131Z,101025.11
2023-05-09T20:17:16.375Z,101022.63
2023-05-09T20:20:20.573Z,101021.02
2023-05-09T20:23:24.594Z,101022.02
2023-05-09T20:26:29.825Z,101022.88
2023-05-09T20:29:33.843Z,101020.73
2023-05-09T20:32:37.802Z,101018.27
2023-05-09T20:35:45.157Z,101015.34
2023-05-09T20:38:49.456Z,101020.23
2023-05-09T20:41:55.645Z,101017.86
2023-05-09T20:44:59.575Z,101018.61
2023-05-09T20:48:05.800Z,101020.16
2023-05-09T20:51:10.252Z,101015.72
2023-05-09T20:54:14.269Z,101015.09
2023-05-09T20:57:18.298Z,101014.68
2023-05-09T21:00:22.316Z,101016.91
2023-05-09T21:03:26.382Z,101015.40
2023-05-09T21:06:31.136Z,101011.02
2023-05-09T21:09:35.046Z,101007.63
2023-05-09T21:12:38.950Z,101012.29
2023-05-09T21:15:42.998Z,101012.16
2023-05-09T21:18:47.015Z,101009.94
2023-05-09T21:21:51.022Z,101008.54
2023-05-09T21:24:54.987Z,101009.34
2023-05-09T21:27:58.986Z,101009.87
2023-05-09T21:31:03.439Z,101009.67
2023-05-09T21:34:10.282Z,101008.94
2023-05-09T21:37:15.230Z,101009.31
2023-05-09T21:40:19.263Z,101005.67
2023-05-09T21:43:23.179Z,101004.65
2023-05-09T21:46:27.164Z,101010.23
2023-05-09T21:49:31.467Z,101007.77
2023-05-09T21:52:35.481Z,101007.95
2023-05-09T21:55:39.395Z,101006.27
2023-05-09T21:58:43.314Z,101007.34
2023-05-09T22:01:47.358Z,101009.53
2023-05-09T22:04:51.296Z,101008.63
2023-05-09T22:07:55.369Z,101006.54
2023-05-09T22:10:59.782Z,101006.55
2023-05-09T22:14:03.700Z,101006.67
2023-05-09T22:17:08.502Z,101010.16
2023-05-09T22:20:12.772Z,101009.30
2023-05-09T22:23:16.759Z,101009.48
2023-05-09T22:26:21.507Z,101002.08
2023-05-09T22:29:25.498Z,101001.09
2023-05-09T22:32:29.640Z,100998.52
2023-05-09T22:35:33.747Z,100997.16
2023-05-09T22:38:37.663Z,100995.95
2023-05-09T22:41:41.595Z,100993.95
2023-05-09T22:44:47.348Z,100993.59
2023-05-09T22:47:51.316Z,100992.66
2023-05-09T22:50:55.465Z,100993.36
2023-05-09T22:53:59.590Z,100990.81
2023-05-09T22:57:03.699Z,100990.15
2023-05-09T23:00:08.684Z,100990.06
2023-05-09T23:03:12.728Z,100986.16
2023-05-09T23:06:16.792Z,100985.23
2023-05-09T23:09:21.405Z,100983.88
2023-05-09T23:12:25.527Z,100983.67
2023-05-09T23:15:29.563Z,100984.61
2023-05-09T23:18:33.555Z,100984.39
2023-05-09T23:21:37.671Z,100985.92
2023-05-09T23:24:41.681Z,100984.48
2023-05-09T23:27:47.123Z,100979.59
2023-05-09T23:30:52.537Z,100981.76
2023-05-09T23:33:56.812Z,100983.41
2023-05-09T23:37:01.236Z,100979.52
2023-05-09T23:40:06.139Z,100979.59
2023-05-09T23:43:10.073Z,100977.67
2023-05-09T23:46:14.169Z,100974.16
2023-05-09T23:49:18.382Z,100973.25
2023-05-09T23:52:23.483Z,100971.55
2023-05-09T23:55:28.092Z,100969.86
2023-05-09T23:58:32.118Z,100964.98
